Terminal Aerodrome Forecast
Issued by NWS Hastings, NE

Home | Current Version | Previous Version | Text Only | Print | Product List | Glossary On
Versions: 1 2 3 4 5 6 7 8 9 10 11 12 13 14 15
000
FTUS43 KGID 162339
TAFGRI
TAF
KGRI 162339Z 1700/1724 35015KT 3SM -FZRASNPL OVC003
     FM170100 35014KT 4SM -FZDZSN OVC003
     FM170200 34014KT 5SM -FZDZSN OVC008
     FM170500 33012KT P6SM BKN040
     FM170900 32010KT P6SM SCT070=

USA.gov is the U.S. government's official web portal to all federal, state and local government web resources and services.